sensor_id;sensor_type;location;lat;lon;timestamp;P1;durP1;ratioP1;P2;durP2;ratioP2
79585;SDS011;69054;50.866;4.636;2023-07-09T00:01:54;13.07;;;9.95;;
79585;SDS011;69054;50.866;4.636;2023-07-09T00:04:19;17.20;;;10.20;;
79585;SDS011;69054;50.866;4.636;2023-07-09T00:06:45;14.27;;;10.43;;
79585;SDS011;69054;50.866;4.636;2023-07-09T00:09:14;13.73;;;9.70;;
79585;SDS011;69054;50.866;4.636;2023-07-09T00:11:42;13.35;;;10.48;;
79585;SDS011;69054;50.866;4.636;2023-07-09T00:14:09;13.35;;;10.25;;
79585;SDS011;69054;50.866;4.636;2023-07-09T00:16:36;14.05;;;10.57;;
79585;SDS011;69054;50.866;4.636;2023-07-09T00:19:03;13.25;;;10.35;;
79585;SDS011;69054;50.866;4.636;2023-07-09T00:21:49;16.92;;;10.50;;
79585;SDS011;69054;50.866;4.636;2023-07-09T00:24:18;13.63;;;10.88;;
79585;SDS011;69054;50.866;4.636;2023-07-09T00:26:43;15.07;;;10.68;;
79585;SDS011;69054;50.866;4.636;2023-07-09T00:29:12;13.27;;;10.77;;
79585;SDS011;69054;50.866;4.636;2023-07-09T00:31:38;14.50;;;10.60;;
79585;SDS011;69054;50.866;4.636;2023-07-09T00:34:06;16.83;;;11.35;;
79585;SDS011;69054;50.866;4.636;2023-07-09T00:36:33;14.07;;;10.55;;
79585;SDS011;69054;50.866;4.636;2023-07-09T00:38:59;13.30;;;10.57;;
79585;SDS011;69054;50.866;4.636;2023-07-09T00:41:29;15.10;;;10.93;;
79585;SDS011;69054;50.866;4.636;2023-07-09T00:43:58;14.85;;;10.82;;
79585;SDS011;69054;50.866;4.636;2023-07-09T00:49:36;16.17;;;12.48;;
79585;SDS011;69054;50.866;4.636;2023-07-09T00:54:55;18.00;;;13.32;;
79585;SDS011;69054;50.866;4.636;2023-07-09T00:57:23;19.42;;;14.23;;
79585;SDS011;69054;50.866;4.636;2023-07-09T00:59:52;18.38;;;13.90;;
79585;SDS011;69054;50.866;4.636;2023-07-09T01:02:21;18.77;;;14.85;;
79585;SDS011;69054;50.866;4.636;2023-07-09T01:04:54;21.73;;;14.70;;
79585;SDS011;69054;50.866;4.636;2023-07-09T01:07:26;18.73;;;14.25;;
79585;SDS011;69054;50.866;4.636;2023-07-09T01:09:52;18.90;;;14.18;;
79585;SDS011;69054;50.866;4.636;2023-07-09T01:12:18;18.05;;;14.35;;
79585;SDS011;69054;50.866;4.636;2023-07-09T01:14:45;17.25;;;14.18;;
79585;SDS011;69054;50.866;4.636;2023-07-09T01:17:13;18.17;;;13.93;;
79585;SDS011;69054;50.866;4.636;2023-07-09T01:19:40;18.95;;;14.60;;
79585;SDS011;69054;50.866;4.636;2023-07-09T01:22:10;17.48;;;14.05;;
79585;SDS011;69054;50.866;4.636;2023-07-09T01:24:54;15.93;;;12.57;;
79585;SDS011;69054;50.866;4.636;2023-07-09T01:27:42;18.75;;;13.13;;
79585;SDS011;69054;50.866;4.636;2023-07-09T01:32:36;17.83;;;13.65;;
79585;SDS011;69054;50.866;4.636;2023-07-09T01:35:03;20.00;;;14.50;;
79585;SDS011;69054;50.866;4.636;2023-07-09T01:37:33;18.05;;;14.40;;
79585;SDS011;69054;50.866;4.636;2023-07-09T01:40:00;18.48;;;14.98;;
79585;SDS011;69054;50.866;4.636;2023-07-09T01:42:25;16.00;;;13.68;;
79585;SDS011;69054;50.866;4.636;2023-07-09T01:44:53;16.95;;;13.80;;
79585;SDS011;69054;50.866;4.636;2023-07-09T01:47:20;16.08;;;13.90;;
79585;SDS011;69054;50.866;4.636;2023-07-09T01:49:47;18.23;;;14.00;;
79585;SDS011;69054;50.866;4.636;2023-07-09T01:52:12;17.58;;;14.02;;
79585;SDS011;69054;50.866;4.636;2023-07-09T01:54:41;16.67;;;13.77;;
79585;SDS011;69054;50.866;4.636;2023-07-09T01:57:21;17.52;;;13.73;;
79585;SDS011;69054;50.866;4.636;2023-07-09T01:59:49;18.20;;;14.20;;
79585;SDS011;69054;50.866;4.636;2023-07-09T02:02:15;20.02;;;15.57;;
79585;SDS011;69054;50.866;4.636;2023-07-09T02:04:44;19.23;;;15.32;;
79585;SDS011;69054;50.866;4.636;2023-07-09T02:07:10;18.60;;;14.98;;
79585;SDS011;69054;50.866;4.636;2023-07-09T02:09:36;20.25;;;15.70;;
79585;SDS011;69054;50.866;4.636;2023-07-09T02:12:01;18.27;;;14.77;;
79585;SDS011;69054;50.866;4.636;2023-07-09T02:14:27;17.13;;;14.98;;
79585;SDS011;69054;50.866;4.636;2023-07-09T02:16:53;19.75;;;15.00;;
79585;SDS011;69054;50.866;4.636;2023-07-09T02:19:18;19.83;;;15.13;;
79585;SDS011;69054;50.866;4.636;2023-07-09T02:21:44;19.85;;;14.82;;
79585;SDS011;69054;50.866;4.636;2023-07-09T02:24:09;17.70;;;14.23;;
79585;SDS011;69054;50.866;4.636;2023-07-09T02:26:34;16.63;;;13.85;;
79585;SDS011;69054;50.866;4.636;2023-07-09T02:29:00;18.92;;;14.82;;
79585;SDS011;69054;50.866;4.636;2023-07-09T02:31:25;18.05;;;14.15;;
79585;SDS011;69054;50.866;4.636;2023-07-09T02:33:55;20.00;;;15.25;;
79585;SDS011;69054;50.866;4.636;2023-07-09T02:36:24;22.42;;;17.33;;
79585;SDS011;69054;50.866;4.636;2023-07-09T02:38:50;23.63;;;16.40;;
79585;SDS011;69054;50.866;4.636;2023-07-09T02:41:15;23.65;;;16.35;;
79585;SDS011;69054;50.866;4.636;2023-07-09T02:43:41;18.92;;;15.80;;
79585;SDS011;69054;50.866;4.636;2023-07-09T02:46:06;21.85;;;16.00;;
79585;SDS011;69054;50.866;4.636;2023-07-09T02:48:32;18.40;;;14.50;;
79585;SDS011;69054;50.866;4.636;2023-07-09T02:50:57;18.05;;;14.32;;
79585;SDS011;69054;50.866;4.636;2023-07-09T02:53:23;17.52;;;13.95;;
79585;SDS011;69054;50.866;4.636;2023-07-09T02:55:48;18.15;;;13.63;;
79585;SDS011;69054;50.866;4.636;2023-07-09T02:58:14;17.58;;;14.18;;
79585;SDS011;69054;50.866;4.636;2023-07-09T03:00:39;19.65;;;14.38;;
79585;SDS011;69054;50.866;4.636;2023-07-09T03:03:04;20.33;;;15.43;;
79585;SDS011;69054;50.866;4.636;2023-07-09T03:05:30;22.80;;;16.13;;
79585;SDS011;69054;50.866;4.636;2023-07-09T03:07:55;22.08;;;16.33;;
79585;SDS011;69054;50.866;4.636;2023-07-09T03:10:20;24.88;;;15.82;;
79585;SDS011;69054;50.866;4.636;2023-07-09T03:12:46;25.45;;;17.75;;
79585;SDS011;69054;50.866;4.636;2023-07-09T03:15:11;25.90;;;17.92;;
79585;SDS011;69054;50.866;4.636;2023-07-09T03:17:37;22.83;;;17.10;;
79585;SDS011;69054;50.866;4.636;2023-07-09T03:20:02;23.42;;;16.88;;
79585;SDS011;69054;50.866;4.636;2023-07-09T03:22:28;24.63;;;18.02;;
79585;SDS011;69054;50.866;4.636;2023-07-09T03:24:53;23.67;;;17.38;;
79585;SDS011;69054;50.866;4.636;2023-07-09T03:27:18;20.23;;;16.25;;
79585;SDS011;69054;50.866;4.636;2023-07-09T03:29:44;21.15;;;15.32;;
79585;SDS011;69054;50.866;4.636;2023-07-09T03:32:09;20.08;;;16.08;;
79585;SDS011;69054;50.866;4.636;2023-07-09T03:34:34;22.73;;;16.60;;
79585;SDS011;69054;50.866;4.636;2023-07-09T03:37:00;24.27;;;16.95;;
79585;SDS011;69054;50.866;4.636;2023-07-09T03:39:25;24.83;;;17.05;;
79585;SDS011;69054;50.866;4.636;2023-07-09T03:41:50;20.73;;;14.88;;
79585;SDS011;69054;50.866;4.636;2023-07-09T03:44:16;23.73;;;16.08;;
79585;SDS011;69054;50.866;4.636;2023-07-09T03:46:41;23.05;;;16.27;;
79585;SDS011;69054;50.866;4.636;2023-07-09T03:49:06;20.73;;;16.15;;
79585;SDS011;69054;50.866;4.636;2023-07-09T03:51:32;20.08;;;15.32;;
79585;SDS011;69054;50.866;4.636;2023-07-09T03:53:57;20.55;;;15.50;;
79585;SDS011;69054;50.866;4.636;2023-07-09T03:56:22;21.65;;;14.95;;
79585;SDS011;69054;50.866;4.636;2023-07-09T03:58:48;21.42;;;15.43;;
79585;SDS011;69054;50.866;4.636;2023-07-09T04:01:13;18.55;;;13.88;;
79585;SDS011;69054;50.866;4.636;2023-07-09T04:03:41;19.45;;;13.98;;
79585;SDS011;69054;50.866;4.636;2023-07-09T04:06:06;16.48;;;13.27;;
79585;SDS011;69054;50.866;4.636;2023-07-09T04:08:32;19.90;;;14.18;;
79585;SDS011;69054;50.866;4.636;2023-07-09T04:11:01;21.45;;;14.77;;
79585;SDS011;69054;50.866;4.636;2023-07-09T04:15:53;17.42;;;14.23;;
79585;SDS011;69054;50.866;4.636;2023-07-09T04:18:18;17.17;;;13.35;;
79585;SDS011;69054;50.866;4.636;2023-07-09T04:20:47;17.63;;;13.55;;
79585;SDS011;69054;50.866;4.636;2023-07-09T04:23:13;16.13;;;12.50;;
79585;SDS011;69054;50.866;4.636;2023-07-09T04:25:39;15.73;;;12.85;;
79585;SDS011;69054;50.866;4.636;2023-07-09T04:28:04;15.38;;;12.77;;
79585;SDS011;69054;50.866;4.636;2023-07-09T04:30:31;16.60;;;13.73;;
79585;SDS011;69054;50.866;4.636;2023-07-09T04:32:56;15.95;;;12.85;;
79585;SDS011;69054;50.866;4.636;2023-07-09T04:35:22;14.43;;;12.63;;
79585;SDS011;69054;50.866;4.636;2023-07-09T04:37:48;17.67;;;13.38;;
79585;SDS011;69054;50.866;4.636;2023-07-09T04:40:14;17.98;;;13.13;;
79585;SDS011;69054;50.866;4.636;2023-07-09T04:42:40;15.00;;;12.02;;
79585;SDS011;69054;50.866;4.636;2023-07-09T04:45:06;17.05;;;12.23;;
79585;SDS011;69054;50.866;4.636;2023-07-09T04:47:34;14.93;;;10.93;;
79585;SDS011;69054;50.866;4.636;2023-07-09T04:49:59;16.02;;;11.63;;
79585;SDS011;69054;50.866;4.636;2023-07-09T04:52:25;13.57;;;10.55;;
79585;SDS011;69054;50.866;4.636;2023-07-09T04:54:50;14.32;;;11.20;;
79585;SDS011;69054;50.866;4.636;2023-07-09T04:57:16;14.07;;;10.50;;
79585;SDS011;69054;50.866;4.636;2023-07-09T04:59:42;13.85;;;11.02;;
79585;SDS011;69054;50.866;4.636;2023-07-09T05:02:07;14.38;;;11.25;;
79585;SDS011;69054;50.866;4.636;2023-07-09T05:04:32;13.02;;;10.48;;
79585;SDS011;69054;50.866;4.636;2023-07-09T05:06:58;12.85;;;10.65;;
79585;SDS011;69054;50.866;4.636;2023-07-09T05:09:24;15.40;;;11.32;;
79585;SDS011;69054;50.866;4.636;2023-07-09T05:11:49;14.77;;;10.43;;
79585;SDS011;69054;50.866;4.636;2023-07-09T05:14:16;14.07;;;10.45;;
79585;SDS011;69054;50.866;4.636;2023-07-09T05:16:41;11.48;;;9.07;;
79585;SDS011;69054;50.866;4.636;2023-07-09T05:19:07;14.43;;;10.25;;
79585;SDS011;69054;50.866;4.636;2023-07-09T05:21:33;12.02;;;8.63;;
79585;SDS011;69054;50.866;4.636;2023-07-09T05:23:59;10.95;;;8.18;;
79585;SDS011;69054;50.866;4.636;2023-07-09T05:26:24;11.38;;;9.18;;
79585;SDS011;69054;50.866;4.636;2023-07-09T05:28:50;11.93;;;8.98;;
79585;SDS011;69054;50.866;4.636;2023-07-09T05:31:15;14.15;;;8.90;;
79585;SDS011;69054;50.866;4.636;2023-07-09T05:33:41;11.73;;;7.95;;
79585;SDS011;69054;50.866;4.636;2023-07-09T05:36:07;13.50;;;8.70;;
79585;SDS011;69054;50.866;4.636;2023-07-09T05:38:33;13.02;;;8.25;;
79585;SDS011;69054;50.866;4.636;2023-07-09T05:40:59;11.65;;;8.20;;
79585;SDS011;69054;50.866;4.636;2023-07-09T05:43:26;9.95;;;8.13;;
79585;SDS011;69054;50.866;4.636;2023-07-09T05:45:52;10.45;;;7.35;;
79585;SDS011;69054;50.866;4.636;2023-07-09T05:48:17;14.60;;;7.88;;
79585;SDS011;69054;50.866;4.636;2023-07-09T05:50:42;9.07;;;6.82;;
79585;SDS011;69054;50.866;4.636;2023-07-09T05:53:08;11.30;;;8.48;;
79585;SDS011;69054;50.866;4.636;2023-07-09T05:55:34;10.38;;;7.13;;
79585;SDS011;69054;50.866;4.636;2023-07-09T05:57:59;9.55;;;7.55;;
79585;SDS011;69054;50.866;4.636;2023-07-09T06:00:24;14.00;;;7.10;;
79585;SDS011;69054;50.866;4.636;2023-07-09T06:02:50;10.40;;;7.15;;
79585;SDS011;69054;50.866;4.636;2023-07-09T06:05:16;10.68;;;7.95;;
79585;SDS011;69054;50.866;4.636;2023-07-09T06:07:41;12.43;;;7.75;;
79585;SDS011;69054;50.866;4.636;2023-07-09T06:10:07;10.45;;;6.78;;
79585;SDS011;69054;50.866;4.636;2023-07-09T06:12:33;8.68;;;6.65;;
79585;SDS011;69054;50.866;4.636;2023-07-09T06:14:59;11.05;;;6.85;;
79585;SDS011;69054;50.866;4.636;2023-07-09T06:17:24;8.60;;;6.55;;
79585;SDS011;69054;50.866;4.636;2023-07-09T06:19:50;11.13;;;6.15;;
79585;SDS011;69054;50.866;4.636;2023-07-09T06:22:15;9.23;;;6.43;;
79585;SDS011;69054;50.866;4.636;2023-07-09T06:24:40;9.93;;;6.45;;
79585;SDS011;69054;50.866;4.636;2023-07-09T06:27:06;8.40;;;6.53;;
79585;SDS011;69054;50.866;4.636;2023-07-09T06:29:31;7.88;;;6.30;;
79585;SDS011;69054;50.866;4.636;2023-07-09T06:31:57;8.32;;;5.78;;
79585;SDS011;69054;50.866;4.636;2023-07-09T06:34:22;11.00;;;6.30;;
79585;SDS011;69054;50.866;4.636;2023-07-09T06:36:48;9.25;;;6.30;;
79585;SDS011;69054;50.866;4.636;2023-07-09T06:39:13;9.00;;;6.43;;
79585;SDS011;69054;50.866;4.636;2023-07-09T06:41:38;8.68;;;5.95;;
79585;SDS011;69054;50.866;4.636;2023-07-09T06:44:07;8.40;;;5.72;;
79585;SDS011;69054;50.866;4.636;2023-07-09T06:46:33;8.25;;;5.82;;
79585;SDS011;69054;50.866;4.636;2023-07-09T06:48:59;9.68;;;6.10;;
79585;SDS011;69054;50.866;4.636;2023-07-09T06:51:25;8.25;;;6.05;;
79585;SDS011;69054;50.866;4.636;2023-07-09T06:53:50;8.77;;;6.13;;
79585;SDS011;69054;50.866;4.636;2023-07-09T06:56:16;7.60;;;5.78;;
79585;SDS011;69054;50.866;4.636;2023-07-09T06:58:42;11.00;;;5.95;;
79585;SDS011;69054;50.866;4.636;2023-07-09T07:01:07;8.30;;;5.65;;
79585;SDS011;69054;50.866;4.636;2023-07-09T07:03:35;7.18;;;5.32;;
79585;SDS011;69054;50.866;4.636;2023-07-09T07:06:00;8.15;;;5.72;;
79585;SDS011;69054;50.866;4.636;2023-07-09T07:08:26;5.68;;;4.72;;
79585;SDS011;69054;50.866;4.636;2023-07-09T07:10:55;8.00;;;4.88;;
79585;SDS011;69054;50.866;4.636;2023-07-09T07:13:28;7.10;;;5.15;;
79585;SDS011;69054;50.866;4.636;2023-07-09T07:16:04;8.15;;;5.07;;
79585;SDS011;69054;50.866;4.636;2023-07-09T07:18:32;6.30;;;5.07;;
79585;SDS011;69054;50.866;4.636;2023-07-09T07:20:58;8.10;;;5.38;;
79585;SDS011;69054;50.866;4.636;2023-07-09T07:23:23;7.93;;;5.53;;
79585;SDS011;69054;50.866;4.636;2023-07-09T07:25:49;5.90;;;4.95;;
79585;SDS011;69054;50.866;4.636;2023-07-09T07:28:15;7.55;;;5.10;;
79585;SDS011;69054;50.866;4.636;2023-07-09T07:30:41;9.82;;;6.13;;
79585;SDS011;69054;50.866;4.636;2023-07-09T07:33:07;7.90;;;4.93;;
79585;SDS011;69054;50.866;4.636;2023-07-09T07:35:33;8.68;;;5.50;;
79585;SDS011;69054;50.866;4.636;2023-07-09T07:37:59;8.82;;;5.20;;
79585;SDS011;69054;50.866;4.636;2023-07-09T07:40:24;7.57;;;5.28;;
79585;SDS011;69054;50.866;4.636;2023-07-09T07:42:50;6.93;;;5.10;;
79585;SDS011;69054;50.866;4.636;2023-07-09T07:45:15;6.90;;;5.03;;
79585;SDS011;69054;50.866;4.636;2023-07-09T07:47:41;5.88;;;4.95;;
79585;SDS011;69054;50.866;4.636;2023-07-09T07:50:07;6.88;;;5.22;;
79585;SDS011;69054;50.866;4.636;2023-07-09T07:52:33;6.88;;;4.82;;
79585;SDS011;69054;50.866;4.636;2023-07-09T07:55:04;7.63;;;5.25;;
79585;SDS011;69054;50.866;4.636;2023-07-09T07:57:30;7.57;;;5.25;;
79585;SDS011;69054;50.866;4.636;2023-07-09T07:59:56;8.50;;;4.95;;
79585;SDS011;69054;50.866;4.636;2023-07-09T08:02:22;9.85;;;5.25;;
79585;SDS011;69054;50.866;4.636;2023-07-09T08:04:48;9.02;;;5.05;;
79585;SDS011;69054;50.866;4.636;2023-07-09T08:07:15;7.25;;;4.90;;
79585;SDS011;69054;50.866;4.636;2023-07-09T08:09:42;6.95;;;5.32;;
79585;SDS011;69054;50.866;4.636;2023-07-09T08:12:09;6.13;;;4.60;;
79585;SDS011;69054;50.866;4.636;2023-07-09T08:14:37;8.02;;;5.25;;
79585;SDS011;69054;50.866;4.636;2023-07-09T08:17:04;8.13;;;5.20;;
79585;SDS011;69054;50.866;4.636;2023-07-09T08:19:30;6.78;;;4.90;;
79585;SDS011;69054;50.866;4.636;2023-07-09T08:21:56;9.60;;;5.43;;
79585;SDS011;69054;50.866;4.636;2023-07-09T08:24:22;9.73;;;5.28;;
79585;SDS011;69054;50.866;4.636;2023-07-09T08:26:47;7.45;;;4.95;;
79585;SDS011;69054;50.866;4.636;2023-07-09T08:29:13;10.55;;;5.60;;
79585;SDS011;69054;50.866;4.636;2023-07-09T08:31:38;8.77;;;5.55;;
79585;SDS011;69054;50.866;4.636;2023-07-09T08:34:05;8.80;;;5.63;;
79585;SDS011;69054;50.866;4.636;2023-07-09T08:36:32;6.85;;;5.07;;
79585;SDS011;69054;50.866;4.636;2023-07-09T08:38:57;9.13;;;5.35;;
79585;SDS011;69054;50.866;4.636;2023-07-09T08:49:25;8.73;;;7.45;;
79585;SDS011;69054;50.866;4.636;2023-07-09T08:52:03;10.70;;;8.30;;
79585;SDS011;69054;50.866;4.636;2023-07-09T08:54:37;10.60;;;8.07;;
79585;SDS011;69054;50.866;4.636;2023-07-09T08:57:38;13.15;;;9.15;;
79585;SDS011;69054;50.866;4.636;2023-07-09T09:00:14;10.15;;;8.20;;
79585;SDS011;69054;50.866;4.636;2023-07-09T09:02:52;9.88;;;8.15;;
79585;SDS011;69054;50.866;4.636;2023-07-09T09:05:21;10.02;;;8.13;;
79585;SDS011;69054;50.866;4.636;2023-07-09T09:07:59;11.15;;;8.35;;
79585;SDS011;69054;50.866;4.636;2023-07-09T09:10:36;9.60;;;8.02;;
79585;SDS011;69054;50.866;4.636;2023-07-09T09:13:09;12.18;;;9.32;;
79585;SDS011;69054;50.866;4.636;2023-07-09T09:15:38;12.68;;;8.95;;
79585;SDS011;69054;50.866;4.636;2023-07-09T09:18:40;11.20;;;8.70;;
79585;SDS011;69054;50.866;4.636;2023-07-09T09:23:48;14.05;;;10.73;;
79585;SDS011;69054;50.866;4.636;2023-07-09T09:26:32;16.08;;;13.00;;
79585;SDS011;69054;50.866;4.636;2023-07-09T09:28:59;16.23;;;11.77;;
79585;SDS011;69054;50.866;4.636;2023-07-09T09:31:25;16.25;;;12.75;;
79585;SDS011;69054;50.866;4.636;2023-07-09T09:33:52;18.85;;;13.88;;
79585;SDS011;69054;50.866;4.636;2023-07-09T09:36:24;15.88;;;12.50;;
79585;SDS011;69054;50.866;4.636;2023-07-09T09:38:51;14.27;;;10.93;;
79585;SDS011;69054;50.866;4.636;2023-07-09T09:41:21;18.88;;;12.02;;
79585;SDS011;69054;50.866;4.636;2023-07-09T09:43:55;21.25;;;16.48;;
79585;SDS011;69054;50.866;4.636;2023-07-09T09:46:26;18.33;;;14.73;;
79585;SDS011;69054;50.866;4.636;2023-07-09T09:48:55;19.60;;;14.35;;
79585;SDS011;69054;50.866;4.636;2023-07-09T09:51:24;20.40;;;15.63;;
79585;SDS011;69054;50.866;4.636;2023-07-09T09:53:50;15.25;;;13.52;;
79585;SDS011;69054;50.866;4.636;2023-07-09T09:56:20;14.95;;;12.45;;
79585;SDS011;69054;50.866;4.636;2023-07-09T09:58:52;17.08;;;13.98;;
79585;SDS011;69054;50.866;4.636;2023-07-09T10:01:19;16.95;;;12.95;;
79585;SDS011;69054;50.866;4.636;2023-07-09T10:03:47;19.70;;;13.07;;
79585;SDS011;69054;50.866;4.636;2023-07-09T10:06:27;16.23;;;12.40;;
79585;SDS011;69054;50.866;4.636;2023-07-09T10:09:00;16.45;;;14.15;;
79585;SDS011;69054;50.866;4.636;2023-07-09T10:11:41;16.27;;;12.98;;
79585;SDS011;69054;50.866;4.636;2023-07-09T10:14:25;18.63;;;14.45;;
79585;SDS011;69054;50.866;4.636;2023-07-09T10:17:04;18.08;;;13.07;;
79585;SDS011;69054;50.866;4.636;2023-07-09T10:22:22;17.48;;;15.10;;
79585;SDS011;69054;50.866;4.636;2023-07-09T10:34:07;21.73;;;17.52;;
79585;SDS011;69054;50.866;4.636;2023-07-09T10:36:25;22.02;;;18.55;;
79585;SDS011;69054;50.866;4.636;2023-07-09T10:39:05;25.73;;;20.13;;
79585;SDS011;69054;50.866;4.636;2023-07-09T10:41:36;27.17;;;21.75;;
79585;SDS011;69054;50.866;4.636;2023-07-09T10:44:10;25.38;;;20.15;;
79585;SDS011;69054;50.866;4.636;2023-07-09T10:46:47;25.73;;;20.42;;
79585;SDS011;69054;50.866;4.636;2023-07-09T10:49:18;28.73;;;22.75;;
79585;SDS011;69054;50.866;4.636;2023-07-09T10:51:50;26.38;;;22.58;;
79585;SDS011;69054;50.866;4.636;2023-07-09T10:54:30;26.58;;;21.75;;
79585;SDS011;69054;50.866;4.636;2023-07-09T10:57:24;25.65;;;21.02;;
79585;SDS011;69054;50.866;4.636;2023-07-09T10:59:53;25.50;;;20.25;;
79585;SDS011;69054;50.866;4.636;2023-07-09T11:02:26;24.13;;;19.08;;
79585;SDS011;69054;50.866;4.636;2023-07-09T11:04:58;23.73;;;17.60;;
79585;SDS011;69054;50.866;4.636;2023-07-09T11:10:01;19.38;;;17.05;;
79585;SDS011;69054;50.866;4.636;2023-07-09T11:12:38;21.02;;;16.13;;
79585;SDS011;69054;50.866;4.636;2023-07-09T11:15:09;16.65;;;14.85;;
79585;SDS011;69054;50.866;4.636;2023-07-09T11:17:40;15.93;;;12.43;;
79585;SDS011;69054;50.866;4.636;2023-07-09T11:20:33;16.92;;;12.43;;
79585;SDS011;69054;50.866;4.636;2023-07-09T11:23:06;13.68;;;10.48;;
79585;SDS011;69054;50.866;4.636;2023-07-09T11:25:42;15.88;;;10.05;;
79585;SDS011;69054;50.866;4.636;2023-07-09T11:28:10;12.00;;;9.40;;
79585;SDS011;69054;50.866;4.636;2023-07-09T11:30:49;14.80;;;8.90;;
79585;SDS011;69054;50.866;4.636;2023-07-09T11:33:20;10.57;;;8.95;;
79585;SDS011;69054;50.866;4.636;2023-07-09T11:36:08;10.82;;;8.80;;
79585;SDS011;69054;50.866;4.636;2023-07-09T11:38:40;12.27;;;8.73;;
79585;SDS011;69054;50.866;4.636;2023-07-09T11:43:52;13.98;;;8.13;;
79585;SDS011;69054;50.866;4.636;2023-07-09T11:46:27;11.43;;;8.23;;
79585;SDS011;69054;50.866;4.636;2023-07-09T11:48:53;11.60;;;8.05;;
79585;SDS011;69054;50.866;4.636;2023-07-09T11:51:23;10.02;;;7.95;;
79585;SDS011;69054;50.866;4.636;2023-07-09T11:54:05;11.68;;;7.22;;
79585;SDS011;69054;50.866;4.636;2023-07-09T11:56:30;9.40;;;6.47;;
79585;SDS011;69054;50.866;4.636;2023-07-09T11:58:56;10.57;;;6.45;;
79585;SDS011;69054;50.866;4.636;2023-07-09T12:01:24;9.98;;;7.00;;
79585;SDS011;69054;50.866;4.636;2023-07-09T12:03:57;8.82;;;6.43;;
79585;SDS011;69054;50.866;4.636;2023-07-09T12:06:23;9.95;;;5.93;;
79585;SDS011;69054;50.866;4.636;2023-07-09T12:08:51;8.70;;;6.13;;
79585;SDS011;69054;50.866;4.636;2023-07-09T12:11:18;7.97;;;5.70;;
79585;SDS011;69054;50.866;4.636;2023-07-09T12:13:54;8.18;;;5.72;;
79585;SDS011;69054;50.866;4.636;2023-07-09T12:16:28;10.30;;;6.05;;
79585;SDS011;69054;50.866;4.636;2023-07-09T12:18:55;8.57;;;5.60;;
79585;SDS011;69054;50.866;4.636;2023-07-09T12:21:25;10.00;;;5.82;;
79585;SDS011;69054;50.866;4.636;2023-07-09T12:23:52;9.40;;;5.95;;
79585;SDS011;69054;50.866;4.636;2023-07-09T12:26:19;7.50;;;5.28;;
79585;SDS011;69054;50.866;4.636;2023-07-09T12:28:51;7.70;;;5.43;;
79585;SDS011;69054;50.866;4.636;2023-07-09T12:31:18;8.38;;;5.90;;
79585;SDS011;69054;50.866;4.636;2023-07-09T12:33:46;8.43;;;4.80;;
79585;SDS011;69054;50.866;4.636;2023-07-09T12:36:14;11.25;;;6.93;;
79585;SDS011;69054;50.866;4.636;2023-07-09T12:38:43;8.38;;;5.65;;
79585;SDS011;69054;50.866;4.636;2023-07-09T12:41:24;11.55;;;6.25;;
79585;SDS011;69054;50.866;4.636;2023-07-09T12:43:53;19.63;;;8.55;;
79585;SDS011;69054;50.866;4.636;2023-07-09T12:46:22;16.73;;;10.40;;
79585;SDS011;69054;50.866;4.636;2023-07-09T12:48:49;13.75;;;9.63;;
79585;SDS011;69054;50.866;4.636;2023-07-09T12:51:24;13.32;;;9.70;;
79585;SDS011;69054;50.866;4.636;2023-07-09T12:54:27;12.85;;;9.98;;
79585;SDS011;69054;50.866;4.636;2023-07-09T12:56:52;20.55;;;12.95;;
79585;SDS011;69054;50.866;4.636;2023-07-09T13:04:20;14.82;;;10.55;;
79585;SDS011;69054;50.866;4.636;2023-07-09T13:06:46;19.05;;;12.70;;
79585;SDS011;69054;50.866;4.636;2023-07-09T13:09:30;13.60;;;10.30;;
79585;SDS011;69054;50.866;4.636;2023-07-09T13:11:56;17.20;;;11.07;;
79585;SDS011;69054;50.866;4.636;2023-07-09T13:14:26;15.77;;;10.00;;
79585;SDS011;69054;50.866;4.636;2023-07-09T13:17:07;16.83;;;11.57;;
79585;SDS011;69054;50.866;4.636;2023-07-09T13:19:34;17.50;;;10.00;;
79585;SDS011;69054;50.866;4.636;2023-07-09T13:22:00;14.07;;;10.85;;
79585;SDS011;69054;50.866;4.636;2023-07-09T13:24:29;17.20;;;10.93;;
79585;SDS011;69054;50.866;4.636;2023-07-09T13:26:58;15.27;;;11.50;;
79585;SDS011;69054;50.866;4.636;2023-07-09T13:29:24;14.20;;;10.38;;
79585;SDS011;69054;50.866;4.636;2023-07-09T13:31:50;16.13;;;11.27;;
79585;SDS011;69054;50.866;4.636;2023-07-09T13:34:20;13.88;;;10.00;;
79585;SDS011;69054;50.866;4.636;2023-07-09T13:36:47;12.98;;;10.50;;
79585;SDS011;69054;50.866;4.636;2023-07-09T13:39:13;12.85;;;9.15;;
79585;SDS011;69054;50.866;4.636;2023-07-09T13:41:43;10.60;;;8.38;;
79585;SDS011;69054;50.866;4.636;2023-07-09T13:44:14;13.90;;;9.73;;
79585;SDS011;69054;50.866;4.636;2023-07-09T13:46:42;13.88;;;9.68;;
79585;SDS011;69054;50.866;4.636;2023-07-09T13:49:09;14.65;;;9.52;;
79585;SDS011;69054;50.866;4.636;2023-07-09T13:51:39;12.57;;;9.57;;
79585;SDS011;69054;50.866;4.636;2023-07-09T13:54:14;12.23;;;8.57;;
79585;SDS011;69054;50.866;4.636;2023-07-09T13:56:42;13.00;;;9.43;;
79585;SDS011;69054;50.866;4.636;2023-07-09T13:59:12;12.13;;;9.07;;
79585;SDS011;69054;50.866;4.636;2023-07-09T14:01:42;12.43;;;9.32;;
79585;SDS011;69054;50.866;4.636;2023-07-09T14:04:13;11.48;;;9.18;;
79585;SDS011;69054;50.866;4.636;2023-07-09T14:06:42;12.20;;;7.90;;
79585;SDS011;69054;50.866;4.636;2023-07-09T14:09:10;10.63;;;8.35;;
79585;SDS011;69054;50.866;4.636;2023-07-09T14:11:37;10.45;;;7.82;;
79585;SDS011;69054;50.866;4.636;2023-07-09T14:14:27;11.70;;;7.50;;
79585;SDS011;69054;50.866;4.636;2023-07-09T14:16:56;9.82;;;7.35;;
79585;SDS011;69054;50.866;4.636;2023-07-09T14:19:22;10.73;;;7.88;;
79585;SDS011;69054;50.866;4.636;2023-07-09T14:21:49;10.45;;;8.23;;
79585;SDS011;69054;50.866;4.636;2023-07-09T14:24:17;11.75;;;9.05;;
79585;SDS011;69054;50.866;4.636;2023-07-09T14:26:48;11.90;;;7.95;;
79585;SDS011;69054;50.866;4.636;2023-07-09T14:29:15;11.88;;;7.47;;
79585;SDS011;69054;50.866;4.636;2023-07-09T14:31:41;12.93;;;7.60;;
79585;SDS011;69054;50.866;4.636;2023-07-09T14:36:50;10.15;;;6.80;;
79585;SDS011;69054;50.866;4.636;2023-07-09T14:39:16;10.65;;;6.80;;
79585;SDS011;69054;50.866;4.636;2023-07-09T14:41:42;9.65;;;6.28;;
79585;SDS011;69054;50.866;4.636;2023-07-09T14:44:19;8.77;;;6.03;;
79585;SDS011;69054;50.866;4.636;2023-07-09T14:46:48;9.95;;;6.95;;
79585;SDS011;69054;50.866;4.636;2023-07-09T14:49:15;7.30;;;6.15;;
79585;SDS011;69054;50.866;4.636;2023-07-09T14:51:41;12.85;;;7.50;;
79585;SDS011;69054;50.866;4.636;2023-07-09T14:54:20;7.60;;;5.93;;
79585;SDS011;69054;50.866;4.636;2023-07-09T14:56:48;9.52;;;6.53;;
79585;SDS011;69054;50.866;4.636;2023-07-09T14:59:14;9.82;;;6.70;;
79585;SDS011;69054;50.866;4.636;2023-07-09T15:01:40;8.15;;;6.85;;
79585;SDS011;69054;50.866;4.636;2023-07-09T15:04:39;7.55;;;6.32;;
79585;SDS011;69054;50.866;4.636;2023-07-09T15:06:58;9.73;;;5.55;;
79585;SDS011;69054;50.866;4.636;2023-07-09T15:09:25;7.32;;;6.20;;
79585;SDS011;69054;50.866;4.636;2023-07-09T15:11:55;10.32;;;6.55;;
79585;SDS011;69054;50.866;4.636;2023-07-09T15:14:23;8.20;;;5.90;;
79585;SDS011;69054;50.866;4.636;2023-07-09T15:16:50;10.50;;;6.40;;
79585;SDS011;69054;50.866;4.636;2023-07-09T15:19:16;10.55;;;6.68;;
79585;SDS011;69054;50.866;4.636;2023-07-09T15:21:44;9.43;;;5.93;;
79585;SDS011;69054;50.866;4.636;2023-07-09T15:24:20;8.30;;;5.38;;
79585;SDS011;69054;50.866;4.636;2023-07-09T15:26:51;9.02;;;5.82;;